createdAt,value
2023-03-17T00:02:25.909Z,5.57
2023-03-17T00:04:53.338Z,5.70
2023-03-17T00:07:21.307Z,5.97
2023-03-17T00:09:48.721Z,5.73
2023-03-17T00:12:16.509Z,5.67
2023-03-17T00:14:46.782Z,6.73
2023-03-17T00:17:14.989Z,5.87
2023-03-17T00:19:43.045Z,6.83
2023-03-17T00:22:16.583Z,6.27
2023-03-17T00:24:44.549Z,6.27
2023-03-17T00:27:13.157Z,6.23
2023-03-17T00:29:40.897Z,6.47
2023-03-17T00:32:15.296Z,6.40
2023-03-17T00:34:43.003Z,6.80
2023-03-17T00:37:11.177Z,6.23
2023-03-17T00:39:38.898Z,6.83
2023-03-17T00:42:06.699Z,6.63
2023-03-17T00:44:34.497Z,6.50
2023-03-17T00:47:02.030Z,6.80
2023-03-17T00:49:30.877Z,6.67
2023-03-17T00:51:58.599Z,6.30
2023-03-17T00:54:26.026Z,6.00
2023-03-17T00:56:53.690Z,6.23
2023-03-17T00:59:27.046Z,6.83
2023-03-17T01:01:54.534Z,7.83
2023-03-17T01:04:22.054Z,6.63
2023-03-17T01:06:51.199Z,8.17
2023-03-17T01:09:20.233Z,7.23
2023-03-17T01:11:48.561Z,7.60
2023-03-17T01:14:16.656Z,6.37
2023-03-17T01:16:44.518Z,6.43
2023-03-17T01:19:12.929Z,6.50
2023-03-17T01:21:40.589Z,5.77
2023-03-17T01:24:09.629Z,6.10
2023-03-17T01:26:37.294Z,5.97
2023-03-17T01:29:06.185Z,6.03
2023-03-17T01:31:33.599Z,6.57
2023-03-17T01:34:01.056Z,5.77
2023-03-17T01:36:28.485Z,6.03
2023-03-17T01:38:55.958Z,6.43
2023-03-17T01:41:24.973Z,5.80
2023-03-17T01:43:52.418Z,5.80
2023-03-17T01:46:21.870Z,5.87
2023-03-17T01:48:52.845Z,6.13
2023-03-17T01:51:23.528Z,6.77
2023-03-17T01:53:52.766Z,6.47
2023-03-17T01:56:20.331Z,6.73
2023-03-17T01:58:50.584Z,5.97
2023-03-17T02:01:18.126Z,6.63
2023-03-17T02:03:45.923Z,5.90
2023-03-17T02:06:13.734Z,6.00
2023-03-17T02:08:41.162Z,6.93
2023-03-17T02:11:08.664Z,6.60
2023-03-17T02:13:37.248Z,6.20
2023-03-17T02:16:06.941Z,6.03
2023-03-17T02:18:34.900Z,6.23
2023-03-17T02:21:17.198Z,6.27
2023-03-17T02:23:46.631Z,6.10
2023-03-17T02:26:14.113Z,6.63
2023-03-17T02:28:45.945Z,6.30
2023-03-17T02:31:13.653Z,6.40
2023-03-17T02:33:42.592Z,6.47
2023-03-17T02:36:10.901Z,6.10
2023-03-17T02:38:38.550Z,6.37
2023-03-17T02:41:09.635Z,6.30
2023-03-17T02:43:37.218Z,6.20
2023-03-17T02:46:05.627Z,6.10
2023-03-17T02:48:33.193Z,6.60
2023-03-17T02:51:00.505Z,6.40
2023-03-17T02:53:27.951Z,6.23
2023-03-17T02:55:55.369Z,6.20
2023-03-17T02:58:24.236Z,6.57
2023-03-17T03:00:51.638Z,7.07
2023-03-17T03:03:19.089Z,6.30
2023-03-17T03:05:47.092Z,5.90
2023-03-17T03:08:14.547Z,6.60
2023-03-17T03:10:42.522Z,6.50
2023-03-17T03:13:10.073Z,6.40
2023-03-17T03:15:41.376Z,6.63
2023-03-17T03:18:08.811Z,6.00
2023-03-17T03:20:36.503Z,6.40
2023-03-17T03:23:04.026Z,5.90
2023-03-17T03:25:31.399Z,6.50
2023-03-17T03:27:58.804Z,6.37
2023-03-17T03:30:26.993Z,6.73
2023-03-17T03:32:56.125Z,6.60
2023-03-17T03:35:23.567Z,6.47
2023-03-17T03:37:51.026Z,6.27
2023-03-17T03:40:18.517Z,6.53
2023-03-17T03:42:46.701Z,6.00
2023-03-17T03:45:14.089Z,6.10
2023-03-17T03:47:41.462Z,6.17
2023-03-17T03:50:11.516Z,6.20
2023-03-17T03:52:38.890Z,6.03
2023-03-17T03:55:06.709Z,6.30
2023-03-17T03:57:34.113Z,6.33
2023-03-17T04:00:01.905Z,5.57
2023-03-17T04:02:39.371Z,6.20
2023-03-17T04:05:07.533Z,5.50
2023-03-17T04:07:36.325Z,6.10
2023-03-17T04:10:03.796Z,5.70
2023-03-17T04:12:31.280Z,6.47
2023-03-17T04:14:58.657Z,6.40
2023-03-17T04:17:26.188Z,6.23
2023-03-17T04:19:53.669Z,5.63
2023-03-17T04:22:21.313Z,6.10
2023-03-17T04:24:50.233Z,5.90
2023-03-17T04:27:17.707Z,5.90
2023-03-17T04:29:45.126Z,5.20
2023-03-17T04:32:13.364Z,5.40
2023-03-17T04:34:41.258Z,5.00
2023-03-17T04:37:09.785Z,5.53
2023-03-17T04:39:37.795Z,5.63
2023-03-17T04:42:07.510Z,5.50
2023-03-17T04:44:35.167Z,5.30
2023-03-17T04:47:02.842Z,5.13
2023-03-17T04:49:30.369Z,5.77
2023-03-17T04:51:57.808Z,5.77
2023-03-17T04:54:25.231Z,5.63
2023-03-17T04:56:53.054Z,5.80
2023-03-17T04:59:21.841Z,6.10
2023-03-17T05:01:49.223Z,7.33
2023-03-17T05:04:28.842Z,6.30
2023-03-17T05:06:59.081Z,5.80
2023-03-17T05:09:27.088Z,5.57
2023-03-17T05:11:54.497Z,6.13
2023-03-17T05:14:23.224Z,6.47
2023-03-17T05:16:51.042Z,6.60
2023-03-17T05:19:18.466Z,6.57
2023-03-17T05:21:46.608Z,6.50
2023-03-17T05:24:14.182Z,6.87
2023-03-17T05:26:41.605Z,6.37
2023-03-17T05:29:09.091Z,6.30
2023-03-17T05:31:38.501Z,6.27
2023-03-17T05:34:05.960Z,5.90
2023-03-17T05:36:33.980Z,5.97
2023-03-17T05:39:01.567Z,5.80
2023-03-17T05:41:29.024Z,5.77
2023-03-17T05:43:56.756Z,5.80
2023-03-17T05:46:24.223Z,5.90
2023-03-17T05:48:53.259Z,5.97
2023-03-17T05:51:21.186Z,5.87
2023-03-17T05:53:48.599Z,6.53
2023-03-17T05:56:16.027Z,6.00
2023-03-17T05:58:43.417Z,5.93
2023-03-17T06:01:10.853Z,6.17
2023-03-17T06:03:39.045Z,6.63
2023-03-17T06:06:09.128Z,6.10
2023-03-17T06:08:36.522Z,6.40
2023-03-17T06:11:04.005Z,6.47
2023-03-17T06:13:31.411Z,6.10
2023-03-17T06:15:58.874Z,6.53
2023-03-17T06:18:26.336Z,6.47
2023-03-17T06:20:53.781Z,6.60
2023-03-17T06:23:23.537Z,6.27
2023-03-17T06:25:50.955Z,5.77
2023-03-17T06:28:18.332Z,5.97
2023-03-17T06:30:45.912Z,4.97
2023-03-17T06:33:13.520Z,5.63
2023-03-17T06:35:41.311Z,5.50
2023-03-17T06:38:08.804Z,5.57
2023-03-17T06:40:38.149Z,5.27
2023-03-17T06:43:05.620Z,5.60
2023-03-17T06:45:33.737Z,6.30
2023-03-17T06:48:01.621Z,5.57
2023-03-17T06:50:29.099Z,6.37
2023-03-17T06:52:56.496Z,5.93
2023-03-17T06:55:23.881Z,5.70
2023-03-17T06:57:52.679Z,5.40
2023-03-17T07:00:20.825Z,5.47
2023-03-17T07:02:48.936Z,5.50
2023-03-17T07:05:16.366Z,5.43
2023-03-17T07:07:44.464Z,5.40
2023-03-17T07:10:13.705Z,5.90
2023-03-17T07:12:41.266Z,5.77
2023-03-17T07:15:12.383Z,5.97
2023-03-17T07:17:39.854Z,5.70
2023-03-17T07:20:07.576Z,5.67
2023-03-17T07:22:34.946Z,5.00
2023-03-17T07:25:03.257Z,5.17
2023-03-17T07:27:31.156Z,5.47
2023-03-17T07:30:01.769Z,5.07
2023-03-17T07:32:30.545Z,5.20
2023-03-17T07:34:58.161Z,5.10
2023-03-17T07:37:25.775Z,5.00
2023-03-17T07:39:53.147Z,5.40
2023-03-17T07:42:20.599Z,5.40
2023-03-17T07:44:48.002Z,5.00
2023-03-17T07:47:15.733Z,5.10
2023-03-17T07:49:44.681Z,5.03
2023-03-17T07:52:12.619Z,4.90
2023-03-17T07:54:43.034Z,5.00
2023-03-17T07:57:10.829Z,4.60
2023-03-17T07:59:39.838Z,5.10
2023-03-17T08:02:07.351Z,5.60
2023-03-17T08:04:35.124Z,5.93
2023-03-17T08:07:06.141Z,5.60
2023-03-17T08:09:33.748Z,5.30
2023-03-17T08:12:01.582Z,5.57
2023-03-17T08:14:29.015Z,6.07
2023-03-17T08:16:56.502Z,7.67
2023-03-17T08:19:24.349Z,8.30
2023-03-17T08:21:51.973Z,8.63
2023-03-17T08:24:20.758Z,9.00
2023-03-17T08:26:49.115Z,9.93
2023-03-17T08:29:16.568Z,10.30
2023-03-17T08:31:46.489Z,10.50
2023-03-17T08:34:14.215Z,9.67
2023-03-17T08:36:41.617Z,9.23
2023-03-17T08:39:10.323Z,8.83
2023-03-17T08:41:39.403Z,8.63
2023-03-17T08:44:08.661Z,9.07
2023-03-17T08:46:36.547Z,10.03
2023-03-17T08:49:04.306Z,9.53
2023-03-17T08:51:34.151Z,10.20
2023-03-17T08:54:02.027Z,9.70
2023-03-17T08:56:29.426Z,10.87
2023-03-17T08:58:58.469Z,10.47
2023-03-17T09:01:27.249Z,9.77
2023-03-17T09:03:55.819Z,9.43
2023-03-17T09:06:23.570Z,9.17
2023-03-17T09:08:55.119Z,9.40
2023-03-17T09:11:23.536Z,8.63
2023-03-17T09:13:51.148Z,8.93
2023-03-17T09:16:20.058Z,8.00
2023-03-17T09:18:48.610Z,8.80
2023-03-17T09:21:17.132Z,7.50
2023-03-17T09:23:44.506Z,7.70
2023-03-17T09:26:12.472Z,7.13
2023-03-17T09:28:39.936Z,7.07
2023-03-17T09:31:11.270Z,8.50
2023-03-17T09:33:40.621Z,11.90
2023-03-17T09:36:08.469Z,11.67
2023-03-17T09:38:36.077Z,8.53
2023-03-17T09:41:08.845Z,6.67
2023-03-17T09:43:42.850Z,6.37
2023-03-17T09:46:28.074Z,6.47
2023-03-17T09:49:00.279Z,6.07
2023-03-17T09:51:29.145Z,7.40
2023-03-17T09:53:59.750Z,6.90
2023-03-17T09:56:28.420Z,6.20
2023-03-17T09:58:57.864Z,7.03
2023-03-17T10:01:26.325Z,8.00
2023-03-17T10:03:53.739Z,6.47
2023-03-17T10:06:28.508Z,5.80
2023-03-17T10:08:58.476Z,6.60
2023-03-17T10:11:32.003Z,6.50
2023-03-17T10:14:01.796Z,6.30
2023-03-17T10:16:34.022Z,5.77
2023-03-17T10:19:03.183Z,5.93
2023-03-17T10:21:34.075Z,5.67
2023-03-17T10:24:02.922Z,5.50
2023-03-17T10:26:32.750Z,6.10
2023-03-17T10:29:03.816Z,5.80
2023-03-17T10:31:33.171Z,5.80
2023-03-17T10:34:06.507Z,6.53
2023-03-17T10:36:37.595Z,6.67
2023-03-17T10:39:06.941Z,6.30
2023-03-17T10:41:35.880Z,7.23
2023-03-17T10:44:09.073Z,7.70
2023-03-17T10:46:38.641Z,7.70
2023-03-17T10:49:07.803Z,6.73
2023-03-17T10:51:38.318Z,6.63
2023-03-17T10:54:09.442Z,6.50
2023-03-17T10:56:37.925Z,7.00
2023-03-17T10:59:06.774Z,6.47
2023-03-17T11:01:38.209Z,8.57
2023-03-17T11:04:20.047Z,6.33
2023-03-17T11:06:51.413Z,6.47
2023-03-17T11:09:21.218Z,6.43
2023-03-17T11:11:49.591Z,7.20
2023-03-17T11:14:18.505Z,7.10
2023-03-17T11:16:53.043Z,6.10
2023-03-17T11:19:22.607Z,6.03
2023-03-17T11:21:54.792Z,6.40
2023-03-17T11:24:25.978Z,5.70
2023-03-17T11:26:57.442Z,7.43
2023-03-17T11:29:28.697Z,6.27
2023-03-17T11:31:59.145Z,5.70
2023-03-17T11:34:33.676Z,5.40
2023-03-17T11:37:06.916Z,5.20
2023-03-17T11:39:37.887Z,5.57
2023-03-17T11:42:09.341Z,5.57
2023-03-17T11:44:57.505Z,5.10
2023-03-17T11:47:36.205Z,5.10
2023-03-17T11:50:08.122Z,5.57
2023-03-17T11:52:40.395Z,5.47
2023-03-17T11:55:11.719Z,4.90
2023-03-17T11:57:42.890Z,5.47
2023-03-17T12:00:16.535Z,5.33
2023-03-17T12:02:46.218Z,5.40
2023-03-17T12:05:15.348Z,5.73
2023-03-17T12:07:46.640Z,5.10
2023-03-17T12:10:17.278Z,5.53
2023-03-17T12:12:47.133Z,5.60
2023-03-17T12:15:17.782Z,5.57
2023-03-17T12:17:48.432Z,5.30
2023-03-17T12:20:18.865Z,5.20
2023-03-17T12:22:51.340Z,6.10
2023-03-17T12:25:21.927Z,5.50
2023-03-17T12:27:53.265Z,5.67
2023-03-17T12:30:24.931Z,5.47
2023-03-17T12:32:56.901Z,5.80
2023-03-17T12:35:27.762Z,5.53
2023-03-17T12:37:56.805Z,5.30
2023-03-17T12:40:26.705Z,5.47
2023-03-17T12:43:01.665Z,6.20
2023-03-17T12:45:37.435Z,5.77
2023-03-17T12:48:14.309Z,5.93
2023-03-17T12:51:06.219Z,6.47
2023-03-17T12:53:35.474Z,5.40
2023-03-17T12:56:10.812Z,6.27
2023-03-17T12:58:39.496Z,5.77
2023-03-17T13:01:09.152Z,5.63
2023-03-17T13:03:38.540Z,5.67
2023-03-17T13:06:07.555Z,6.30
2023-03-17T13:08:37.882Z,5.90
2023-03-17T13:11:19.587Z,7.20
2023-03-17T13:13:48.746Z,5.90
2023-03-17T13:16:31.966Z,6.07
2023-03-17T13:19:23.463Z,6.40
2023-03-17T13:21:52.244Z,5.70
2023-03-17T13:24:23.518Z,5.83
2023-03-17T13:26:54.951Z,5.80
2023-03-17T13:29:26.708Z,5.70
2023-03-17T13:32:14.361Z,5.60
2023-03-17T13:34:46.191Z,5.83
2023-03-17T13:37:20.634Z,5.73
2023-03-17T13:40:10.197Z,5.83
2023-03-17T13:43:05.319Z,5.80
2023-03-17T13:45:38.157Z,6.50
2023-03-17T13:48:24.094Z,6.47
2023-03-17T13:50:54.968Z,6.30
2023-03-17T13:53:28.440Z,6.57
2023-03-17T13:56:09.336Z,6.03
2023-03-17T13:58:49.986Z,5.97
2023-03-17T14:01:18.891Z,5.37
2023-03-17T14:03:48.706Z,5.77
2023-03-17T14:06:17.031Z,5.97
2023-03-17T14:08:46.546Z,6.20
2023-03-17T14:11:28.996Z,6.10
2023-03-17T14:14:05.899Z,5.73
2023-03-17T14:16:35.617Z,6.10
2023-03-17T14:19:10.913Z,5.73
2023-03-17T14:21:38.331Z,6.43
2023-03-17T14:24:17.808Z,7.63
2023-03-17T14:26:45.458Z,9.77
2023-03-17T14:29:15.075Z,8.17
2023-03-17T14:31:47.504Z,7.07
2023-03-17T14:34:16.020Z,6.17
2023-03-17T14:36:43.450Z,5.87
2023-03-17T14:39:21.799Z,7.37
2023-03-17T14:41:57.535Z,6.30
2023-03-17T14:44:25.004Z,6.33
2023-03-17T14:47:01.612Z,5.93
2023-03-17T14:49:29.076Z,5.97
2023-03-17T14:51:58.165Z,5.80
2023-03-17T14:54:27.480Z,5.70
2023-03-17T14:57:01.761Z,5.70
2023-03-17T14:59:30.803Z,5.53
2023-03-17T15:02:00.587Z,5.80
2023-03-17T15:04:28.672Z,5.50
2023-03-17T15:06:56.958Z,5.33
2023-03-17T15:09:26.989Z,4.60
2023-03-17T15:11:55.483Z,5.37
2023-03-17T15:14:26.964Z,5.27
2023-03-17T15:16:55.840Z,4.77
2023-03-17T15:19:28.337Z,4.87
2023-03-17T15:21:59.667Z,5.10
2023-03-17T15:24:39.778Z,4.97
2023-03-17T15:27:11.399Z,4.70
2023-03-17T15:29:38.764Z,4.33
2023-03-17T15:32:15.052Z,4.30
2023-03-17T15:34:44.056Z,4.30
2023-03-17T15:37:21.040Z,4.17
2023-03-17T15:39:49.095Z,3.90
2023-03-17T15:42:16.607Z,3.23
2023-03-17T15:44:44.199Z,3.50
2023-03-17T15:47:13.508Z,3.23
2023-03-17T15:49:40.920Z,3.37
2023-03-17T15:52:14.804Z,3.00
2023-03-17T15:54:42.200Z,3.23
2023-03-17T15:57:10.645Z,3.00
2023-03-17T15:59:38.021Z,2.70
2023-03-17T16:02:14.651Z,2.90
2023-03-17T16:04:42.090Z,2.97
2023-03-17T16:07:13.021Z,2.57
2023-03-17T16:09:40.683Z,2.83
2023-03-17T16:12:10.038Z,2.93
2023-03-17T16:14:38.032Z,2.57
2023-03-17T16:17:05.898Z,3.03
2023-03-17T16:19:33.688Z,2.63
2023-03-17T16:22:01.095Z,2.67
2023-03-17T16:24:29.833Z,3.00
2023-03-17T16:26:57.218Z,2.47
2023-03-17T16:29:24.590Z,2.77
2023-03-17T16:31:52.026Z,2.60
2023-03-17T16:34:20.140Z,2.77
2023-03-17T16:36:48.351Z,2.63
2023-03-17T16:39:16.523Z,2.90
2023-03-17T16:41:45.785Z,2.73
2023-03-17T16:44:13.310Z,3.17
2023-03-17T16:46:44.696Z,3.10
2023-03-17T16:49:13.719Z,3.20
2023-03-17T16:51:41.130Z,2.70
2023-03-17T16:54:08.531Z,3.70
2023-03-17T16:56:36.359Z,3.10
2023-03-17T16:59:05.227Z,4.03
2023-03-17T17:01:32.667Z,3.70
2023-03-17T17:04:00.148Z,3.90
2023-03-17T17:06:27.966Z,4.40
2023-03-17T17:08:55.363Z,3.67
2023-03-17T17:11:22.755Z,3.87
2023-03-17T17:13:51.549Z,4.20
2023-03-17T17:16:22.197Z,3.87
2023-03-17T17:18:50.146Z,8.20
2023-03-17T17:21:17.695Z,4.03
2023-03-17T17:23:45.208Z,4.23
2023-03-17T17:26:12.631Z,4.27
2023-03-17T17:28:40.368Z,4.40
2023-03-17T17:31:08.618Z,4.10
2023-03-17T17:33:37.932Z,4.10
2023-03-17T17:36:06.815Z,4.03
2023-03-17T17:38:34.309Z,4.63
2023-03-17T17:41:05.545Z,4.37
2023-03-17T17:43:34.121Z,4.30
2023-03-17T17:46:02.072Z,3.70
2023-03-17T17:48:29.840Z,3.63
2023-03-17T17:50:58.635Z,3.87
2023-03-17T17:53:26.023Z,3.70
2023-03-17T17:55:53.554Z,3.40
2023-03-17T17:58:22.272Z,3.03
2023-03-17T18:00:49.762Z,3.43
2023-03-17T18:03:17.209Z,3.40
2023-03-17T18:05:44.615Z,3.40
2023-03-17T18:08:14.871Z,3.47
2023-03-17T18:10:42.364Z,3.83
2023-03-17T18:13:09.773Z,3.60
2023-03-17T18:15:37.216Z,3.30
2023-03-17T18:18:05.462Z,3.60
2023-03-17T18:20:33.467Z,3.83
2023-03-17T18:23:01.492Z,4.77
2023-03-17T18:25:30.309Z,4.70
2023-03-17T18:27:57.744Z,4.77
2023-03-17T18:30:26.508Z,4.93
2023-03-17T18:32:55.827Z,5.67
2023-03-17T18:35:23.944Z,5.47
2023-03-17T18:37:51.748Z,5.60
2023-03-17T18:40:19.709Z,5.40
2023-03-17T18:42:48.545Z,5.00
2023-03-17T18:45:16.390Z,4.57
2023-03-17T18:47:43.889Z,4.50
2023-03-17T18:50:12.657Z,4.17
2023-03-17T18:52:40.975Z,4.17
2023-03-17T18:55:09.277Z,4.07
2023-03-17T18:57:37.015Z,4.53
2023-03-17T19:00:06.934Z,4.40
2023-03-17T19:02:34.344Z,4.40
2023-03-17T19:05:02.096Z,4.40
2023-03-17T19:07:29.577Z,4.13
2023-03-17T19:09:57.101Z,4.20
2023-03-17T19:12:24.655Z,4.27
2023-03-17T19:14:52.135Z,4.07
2023-03-17T19:17:20.905Z,4.10
2023-03-17T19:19:50.219Z,5.07
2023-03-17T19:22:17.740Z,5.27
2023-03-17T19:24:45.730Z,5.03
2023-03-17T19:27:13.128Z,5.10
2023-03-17T19:29:40.496Z,5.20
2023-03-17T19:32:08.070Z,5.20
2023-03-17T19:34:36.828Z,4.67
2023-03-17T19:37:04.255Z,5.13
2023-03-17T19:39:33.383Z,5.17
2023-03-17T19:42:00.878Z,5.33
2023-03-17T19:44:28.268Z,5.93
2023-03-17T19:46:55.753Z,5.23
2023-03-17T19:49:23.171Z,4.70
2023-03-17T19:51:52.303Z,5.00
2023-03-17T19:54:23.442Z,5.80
2023-03-17T19:56:51.363Z,6.87
2023-03-17T19:59:19.672Z,6.77
2023-03-17T20:01:48.609Z,6.43
2023-03-17T20:04:19.324Z,5.87
2023-03-17T20:06:47.105Z,6.70
2023-03-17T20:09:15.982Z,6.40
2023-03-17T20:11:43.361Z,6.70
2023-03-17T20:14:10.729Z,6.40
2023-03-17T20:16:39.277Z,6.40
2023-03-17T20:19:07.391Z,6.27
2023-03-17T20:21:34.797Z,7.23
2023-03-17T20:24:02.654Z,7.23
2023-03-17T20:26:31.390Z,7.80
2023-03-17T20:28:58.802Z,8.10
2023-03-17T20:31:26.238Z,8.00
2023-03-17T20:33:53.608Z,7.27
2023-03-17T20:36:21.998Z,7.50
2023-03-17T20:38:49.862Z,8.23
2023-03-17T20:41:18.165Z,9.80
2023-03-17T20:43:47.463Z,8.83
2023-03-17T20:46:16.214Z,9.07
2023-03-17T20:48:44.171Z,9.23
2023-03-17T20:51:16.215Z,7.77
2023-03-17T20:53:44.566Z,8.60
2023-03-17T20:56:13.592Z,8.60
2023-03-17T20:58:41.253Z,9.33
2023-03-17T21:01:12.699Z,8.13
2023-03-17T21:03:40.141Z,8.10
2023-03-17T21:06:07.625Z,7.17
2023-03-17T21:08:35.176Z,7.20
2023-03-17T21:11:03.291Z,7.03
2023-03-17T21:13:30.927Z,6.50
2023-03-17T21:15:59.095Z,6.60
2023-03-17T21:18:28.547Z,7.20
2023-03-17T21:20:55.909Z,6.00
2023-03-17T21:23:23.632Z,6.80
2023-03-17T21:25:55.131Z,6.30
2023-03-17T21:28:22.670Z,6.30
2023-03-17T21:30:50.370Z,6.77
2023-03-17T21:33:17.775Z,6.50
2023-03-17T21:35:47.171Z,6.27
2023-03-17T21:38:14.611Z,6.90
2023-03-17T21:40:42.823Z,5.90
2023-03-17T21:43:10.575Z,6.60
2023-03-17T21:45:38.895Z,6.13
2023-03-17T21:48:06.492Z,6.43
2023-03-17T21:50:34.344Z,6.07
2023-03-17T21:53:03.604Z,6.10
2023-03-17T21:55:31.454Z,6.07
2023-03-17T21:57:59.538Z,7.03
2023-03-17T22:00:28.982Z,6.23
2023-03-17T22:03:04.137Z,6.40
2023-03-17T22:05:31.584Z,6.17
2023-03-17T22:07:59.421Z,6.63
2023-03-17T22:10:28.167Z,6.27
2023-03-17T22:12:55.895Z,6.30
2023-03-17T22:15:23.271Z,6.03
2023-03-17T22:17:50.651Z,5.80
2023-03-17T22:20:18.663Z,6.33
2023-03-17T22:22:46.182Z,6.70
2023-03-17T22:25:13.579Z,6.40
2023-03-17T22:27:42.349Z,6.37
2023-03-17T22:30:10.818Z,6.00
2023-03-17T22:32:38.279Z,6.03
2023-03-17T22:35:06.404Z,6.20
2023-03-17T22:37:33.852Z,5.93
2023-03-17T22:40:03.883Z,6.13
2023-03-17T22:42:32.147Z,6.23
2023-03-17T22:45:00.900Z,6.43
2023-03-17T22:47:28.286Z,6.07
2023-03-17T22:49:55.908Z,6.60
2023-03-17T22:52:23.342Z,6.67
2023-03-17T22:54:50.722Z,5.80
2023-03-17T22:57:18.079Z,6.20
2023-03-17T22:59:45.543Z,6.73
2023-03-17T23:02:16.222Z,6.53
2023-03-17T23:04:45.404Z,6.67
2023-03-17T23:07:12.789Z,6.83
2023-03-17T23:09:41.278Z,6.63
2023-03-17T23:12:08.992Z,6.70
2023-03-17T23:14:37.095Z,6.60
2023-03-17T23:17:04.777Z,7.03
2023-03-17T23:19:34.061Z,6.43
2023-03-17T23:22:01.546Z,6.40
2023-03-17T23:24:28.960Z,6.20
2023-03-17T23:26:56.348Z,7.10
2023-03-17T23:29:24.249Z,6.20
2023-03-17T23:31:51.612Z,6.30
2023-03-17T23:34:19.010Z,6.90
2023-03-17T23:36:47.737Z,6.40
2023-03-17T23:39:15.328Z,7.03
2023-03-17T23:41:42.766Z,6.50
2023-03-17T23:44:11.212Z,6.23
2023-03-17T23:46:38.872Z,6.93
2023-03-17T23:49:07.162Z,6.43
2023-03-17T23:51:35.388Z,7.20
2023-03-17T23:54:04.871Z,6.13
2023-03-17T23:56:33.343Z,6.47
2023-03-17T23:59:01.518Z,7.00
